createdAt,value
2017-09-17T00:01:04.652Z,80.00
2017-09-17T00:03:33.717Z,80.30
2017-09-17T00:06:02.012Z,79.60
2017-09-17T00:08:30.316Z,79.70
2017-09-17T00:10:58.604Z,79.90
2017-09-17T00:13:27.661Z,80.00
2017-09-17T00:15:55.951Z,79.90
2017-09-17T00:18:24.243Z,79.90
2017-09-17T00:20:52.544Z,80.00
2017-09-17T00:23:21.604Z,80.10
2017-09-17T00:25:49.891Z,80.10
2017-09-17T00:28:18.191Z,80.20
2017-09-17T00:30:46.484Z,80.20
2017-09-17T00:33:15.534Z,80.30
2017-09-17T00:35:43.839Z,80.30
2017-09-17T00:38:12.147Z,80.40
2017-09-17T00:40:41.200Z,80.60
2017-09-17T00:43:09.508Z,80.50
2017-09-17T00:45:37.798Z,80.50
2017-09-17T00:48:06.091Z,80.60
2017-09-17T00:50:35.156Z,80.80
2017-09-17T00:53:03.443Z,80.70
2017-09-17T00:55:31.733Z,80.90
2017-09-17T00:58:00.036Z,80.90
2017-09-17T01:00:29.100Z,81.00
2017-09-17T01:02:57.407Z,81.00
2017-09-17T01:05:25.738Z,81.10
2017-09-17T01:07:54.019Z,81.20
2017-09-17T01:10:22.307Z,81.10
2017-09-17T01:12:50.704Z,81.30
2017-09-17T01:15:18.973Z,81.40
2017-09-17T01:17:47.276Z,81.50
2017-09-17T01:20:15.564Z,81.50
2017-09-17T01:22:43.852Z,81.50
2017-09-17T01:25:12.189Z,81.60
2017-09-17T01:27:40.511Z,81.50
2017-09-17T01:30:08.800Z,81.50
2017-09-17T01:32:37.104Z,81.50
2017-09-17T01:35:05.410Z,82.30
2017-09-17T01:37:33.694Z,81.60
2017-09-17T01:40:01.998Z,81.60
2017-09-17T01:42:31.075Z,81.70
2017-09-17T01:44:59.373Z,81.70
2017-09-17T01:47:27.687Z,81.80
2017-09-17T01:49:55.970Z,82.00
2017-09-17T01:52:24.252Z,82.00
2017-09-17T01:54:52.563Z,82.00
2017-09-17T01:57:20.851Z,82.10
2017-09-17T01:59:49.141Z,82.00
2017-09-17T02:02:17.431Z,82.10
2017-09-17T02:04:45.727Z,82.00
2017-09-17T02:07:14.075Z,82.00
2017-09-17T02:09:42.386Z,82.00
2017-09-17T02:12:11.439Z,82.10
2017-09-17T02:14:40.484Z,82.30
2017-09-17T02:17:08.775Z,82.30
2017-09-17T02:19:37.067Z,82.30
2017-09-17T02:22:05.373Z,82.50
2017-09-17T02:24:34.419Z,82.90
2017-09-17T02:27:02.695Z,82.90
2017-09-17T02:29:31.004Z,82.90
2017-09-17T02:31:59.292Z,83.00
2017-09-17T02:34:27.598Z,83.00
2017-09-17T02:36:56.678Z,83.20
2017-09-17T02:39:24.973Z,83.20
2017-09-17T02:41:54.019Z,83.00
2017-09-17T02:44:22.331Z,83.00
2017-09-17T02:46:50.626Z,83.00
2017-09-17T02:49:19.686Z,84.00
2017-09-17T02:51:47.994Z,83.00
2017-09-17T02:54:16.284Z,83.20
2017-09-17T02:56:44.582Z,83.30
2017-09-17T02:59:13.669Z,83.40
2017-09-17T03:01:41.957Z,83.30
2017-09-17T03:04:11.037Z,83.40
2017-09-17T03:06:39.344Z,83.40
2017-09-17T03:09:08.404Z,83.40
2017-09-17T03:11:36.687Z,83.40
2017-09-17T03:14:04.990Z,83.40
2017-09-17T03:16:33.285Z,83.40
2017-09-17T03:19:02.371Z,83.50
2017-09-17T03:21:30.665Z,83.40
2017-09-17T03:23:59.729Z,83.40
2017-09-17T03:26:28.050Z,83.30
2017-09-17T03:28:57.098Z,83.40
2017-09-17T03:31:25.390Z,83.30
2017-09-17T03:33:53.680Z,83.40
2017-09-17T03:36:21.980Z,84.20
2017-09-17T03:38:51.041Z,83.40
2017-09-17T03:41:19.329Z,83.30
2017-09-17T03:43:47.633Z,83.30
2017-09-17T03:46:15.915Z,84.20
2017-09-17T03:48:44.972Z,83.60
2017-09-17T03:51:13.260Z,83.60
2017-09-17T03:53:41.550Z,83.60
2017-09-17T03:56:09.848Z,83.60
2017-09-17T03:58:38.154Z,83.60
2017-09-17T04:01:07.211Z,83.70
2017-09-17T04:03:35.511Z,83.70
2017-09-17T04:06:03.808Z,83.70
2017-09-17T04:08:32.864Z,83.90
2017-09-17T04:11:01.151Z,83.90
2017-09-17T04:13:29.439Z,83.90
2017-09-17T04:15:57.722Z,83.90
2017-09-17T04:18:26.003Z,84.00
2017-09-17T04:20:54.308Z,84.00
2017-09-17T04:23:23.436Z,84.00
2017-09-17T04:25:51.720Z,83.90
2017-09-17T04:28:20.019Z,83.90
2017-09-17T04:30:48.315Z,83.90
2017-09-17T04:33:16.607Z,83.90
2017-09-17T04:35:44.895Z,83.70
2017-09-17T04:38:13.194Z,83.90
2017-09-17T04:40:42.260Z,83.70
2017-09-17T04:43:10.551Z,83.70
2017-09-17T04:45:39.620Z,83.70
2017-09-17T04:48:07.912Z,83.70
2017-09-17T04:50:36.199Z,83.70
2017-09-17T04:53:04.507Z,83.70
2017-09-17T04:55:32.799Z,83.70
2017-09-17T04:58:01.851Z,83.70
2017-09-17T05:00:30.148Z,83.70
2017-09-17T05:02:58.458Z,83.60
2017-09-17T05:05:27.536Z,83.60
2017-09-17T05:07:55.830Z,83.60
2017-09-17T05:10:24.116Z,83.60
2017-09-17T05:12:53.189Z,83.60
2017-09-17T05:15:21.487Z,83.60
2017-09-17T05:17:49.771Z,83.60
2017-09-17T05:20:18.839Z,84.10
2017-09-17T05:22:47.131Z,83.60
2017-09-17T05:25:15.436Z,83.50
2017-09-17T05:27:44.491Z,84.40
2017-09-17T05:30:12.785Z,83.60
2017-09-17T05:32:41.099Z,83.50
2017-09-17T05:35:10.159Z,83.50
2017-09-17T05:37:38.468Z,83.50
2017-09-17T05:40:06.774Z,83.50
2017-09-17T05:42:35.829Z,83.20
2017-09-17T05:45:04.129Z,83.20
2017-09-17T05:47:32.435Z,83.30
2017-09-17T05:50:01.490Z,83.10
2017-09-17T05:52:29.789Z,83.10
2017-09-17T05:54:58.122Z,83.10
2017-09-17T05:57:26.413Z,83.00
2017-09-17T05:59:54.706Z,82.90
2017-09-17T06:02:23.013Z,83.00
2017-09-17T06:04:51.306Z,82.80
2017-09-17T06:07:20.356Z,82.60
2017-09-17T06:09:48.667Z,82.60
2017-09-17T06:12:16.962Z,82.40
2017-09-17T06:14:45.263Z,82.40
2017-09-17T06:17:14.330Z,82.00
2017-09-17T06:19:42.614Z,82.00
2017-09-17T06:22:10.908Z,82.00
2017-09-17T06:24:39.197Z,81.90
2017-09-17T06:27:08.252Z,81.70
2017-09-17T06:29:36.572Z,81.60
2017-09-17T06:32:05.633Z,81.50
2017-09-17T06:34:33.911Z,81.50
2017-09-17T06:37:02.226Z,81.30
2017-09-17T06:39:30.524Z,81.00
2017-09-17T06:41:59.579Z,80.60
2017-09-17T06:44:27.884Z,80.50
2017-09-17T06:46:56.961Z,80.20
2017-09-17T06:49:25.253Z,80.20
2017-09-17T06:51:53.550Z,79.80
2017-09-17T06:54:22.655Z,79.80
2017-09-17T06:56:51.710Z,78.80
2017-09-17T06:59:20.007Z,78.80
2017-09-17T07:01:48.305Z,78.60
2017-09-17T07:04:16.591Z,78.20
2017-09-17T07:06:44.875Z,77.60
2017-09-17T07:09:13.933Z,76.60
2017-09-17T07:11:42.245Z,76.50
2017-09-17T07:14:10.530Z,75.90
2017-09-17T07:16:38.834Z,75.60
2017-09-17T07:19:07.904Z,75.40
2017-09-17T07:21:36.195Z,75.40
2017-09-17T07:24:05.281Z,75.70
2017-09-17T07:26:33.590Z,74.80
2017-09-17T07:29:02.657Z,74.10
2017-09-17T07:31:30.951Z,74.10
2017-09-17T07:33:59.254Z,73.60
2017-09-17T07:36:28.311Z,73.00
2017-09-17T07:38:56.602Z,72.90
2017-09-17T07:41:24.896Z,72.40
2017-09-17T07:43:53.944Z,72.00
2017-09-17T07:46:22.246Z,71.90
2017-09-17T07:48:50.537Z,71.90
2017-09-17T07:51:18.827Z,72.00
2017-09-17T07:53:47.114Z,71.60
2017-09-17T07:56:15.413Z,71.10
2017-09-17T07:58:44.476Z,70.50
2017-09-17T08:01:12.770Z,70.50
2017-09-17T08:03:41.073Z,70.70
2017-09-17T08:06:10.127Z,70.20
2017-09-17T08:08:38.415Z,70.20
2017-09-17T08:11:06.721Z,69.70
2017-09-17T08:13:35.004Z,69.60
2017-09-17T08:16:03.293Z,69.50
2017-09-17T08:18:32.370Z,69.20
2017-09-17T08:21:00.674Z,69.20
2017-09-17T08:23:29.725Z,68.50
2017-09-17T08:25:58.029Z,68.30
2017-09-17T08:28:26.323Z,68.00
2017-09-17T08:30:54.624Z,67.70
2017-09-17T08:33:22.939Z,67.40
2017-09-17T08:35:51.244Z,67.00
2017-09-17T08:38:19.541Z,66.60
2017-09-17T08:40:47.851Z,66.20
2017-09-17T08:43:16.161Z,65.90
2017-09-17T08:45:44.461Z,65.50
2017-09-17T08:48:12.761Z,65.00
2017-09-17T08:50:41.066Z,64.50
2017-09-17T08:53:10.110Z,63.80
2017-09-17T08:55:38.404Z,63.00
2017-09-17T08:58:06.732Z,62.50
2017-09-17T09:00:35.809Z,61.60
2017-09-17T09:03:04.104Z,61.40
2017-09-17T09:05:33.179Z,61.00
2017-09-17T09:08:01.463Z,60.80
2017-09-17T09:10:29.748Z,60.50
2017-09-17T09:12:58.046Z,60.40
2017-09-17T09:15:27.092Z,60.10
2017-09-17T09:17:55.403Z,60.00
2017-09-17T09:20:23.689Z,60.60
2017-09-17T09:22:51.974Z,61.00
2017-09-17T09:25:20.283Z,60.80
2017-09-17T09:27:49.346Z,60.30
2017-09-17T09:30:17.639Z,60.30
2017-09-17T09:32:45.956Z,60.50
2017-09-17T09:35:14.250Z,60.60
2017-09-17T09:37:42.547Z,60.60
2017-09-17T09:40:10.851Z,60.30
2017-09-17T09:42:39.141Z,60.10
2017-09-17T09:45:07.439Z,59.80
2017-09-17T09:47:36.513Z,59.10
2017-09-17T09:50:04.793Z,59.10
2017-09-17T09:52:33.089Z,59.10
2017-09-17T09:55:01.378Z,58.50
2017-09-17T09:57:30.459Z,57.50
2017-09-17T09:59:58.760Z,57.60
2017-09-17T10:02:27.819Z,56.90
2017-09-17T10:04:56.138Z,56.80
2017-09-17T10:07:25.213Z,56.30
2017-09-17T10:09:53.524Z,56.30
2017-09-17T10:12:22.608Z,56.20
2017-09-17T10:14:51.669Z,56.20
2017-09-17T10:17:19.975Z,55.70
2017-09-17T10:19:48.264Z,55.40
2017-09-17T10:22:16.558Z,55.00
2017-09-17T10:24:45.622Z,55.50
2017-09-17T10:27:13.910Z,54.90
2017-09-17T10:29:42.204Z,55.00
2017-09-17T10:32:10.508Z,55.20
2017-09-17T10:34:39.567Z,54.40
2017-09-17T10:37:07.863Z,54.40
2017-09-17T10:39:36.163Z,53.80
2017-09-17T10:42:05.217Z,54.10
2017-09-17T10:44:33.508Z,54.00
2017-09-17T10:47:01.803Z,53.70
2017-09-17T10:49:30.092Z,53.10
2017-09-17T10:51:58.392Z,53.10
2017-09-17T10:54:27.473Z,52.70
2017-09-17T10:56:55.770Z,52.60
2017-09-17T10:59:24.838Z,52.30
2017-09-17T11:01:53.149Z,52.30
2017-09-17T11:04:22.202Z,52.80
2017-09-17T11:06:50.508Z,52.80
2017-09-17T11:09:18.799Z,52.80
2017-09-17T11:11:47.864Z,52.50
2017-09-17T11:14:16.939Z,52.60
2017-09-17T11:16:45.243Z,52.60
2017-09-17T11:19:13.533Z,52.70
2017-09-17T11:21:42.607Z,52.50
2017-09-17T11:24:10.896Z,52.50
2017-09-17T11:26:39.193Z,52.20
2017-09-17T11:29:07.507Z,51.70
2017-09-17T11:31:36.567Z,51.10
2017-09-17T11:34:04.853Z,51.00
2017-09-17T11:36:33.173Z,51.60
2017-09-17T11:39:02.225Z,50.40
2017-09-17T11:41:30.520Z,50.40
2017-09-17T11:43:58.840Z,50.20
2017-09-17T11:46:27.906Z,49.70
2017-09-17T11:48:56.213Z,49.60
2017-09-17T11:51:25.266Z,50.80
2017-09-17T11:53:53.553Z,50.20
2017-09-17T11:56:21.843Z,50.80
2017-09-17T11:58:50.142Z,51.00
2017-09-17T12:01:18.445Z,51.20
2017-09-17T12:03:46.745Z,51.90
2017-09-17T12:06:15.042Z,51.00
2017-09-17T12:08:43.341Z,51.30
2017-09-17T12:11:11.636Z,51.00
2017-09-17T12:13:39.923Z,50.70
2017-09-17T12:16:08.213Z,51.00
2017-09-17T12:18:36.496Z,51.10
2017-09-17T12:21:04.796Z,50.30
2017-09-17T12:23:33.089Z,50.60
2017-09-17T12:26:01.372Z,49.40
2017-09-17T12:28:29.675Z,49.30
2017-09-17T12:30:57.983Z,49.10
2017-09-17T12:33:26.273Z,48.60
2017-09-17T12:35:54.575Z,47.80
2017-09-17T12:38:23.626Z,46.00
2017-09-17T12:40:51.908Z,46.00
2017-09-17T12:43:20.196Z,46.40
2017-09-17T12:45:48.501Z,46.60
2017-09-17T12:48:16.796Z,47.10
2017-09-17T12:50:45.843Z,48.40
2017-09-17T12:53:14.140Z,48.40
2017-09-17T12:55:42.426Z,48.30
2017-09-17T12:58:10.730Z,47.80
2017-09-17T13:00:39.025Z,47.90
2017-09-17T13:03:08.078Z,48.40
2017-09-17T13:05:36.386Z,48.40
2017-09-17T13:08:04.681Z,48.40
2017-09-17T13:10:33.735Z,48.50
2017-09-17T13:13:02.033Z,48.50
2017-09-17T13:15:30.333Z,48.60
2017-09-17T13:17:59.384Z,49.50
2017-09-17T13:20:27.701Z,49.50
2017-09-17T13:22:55.990Z,50.60
2017-09-17T13:25:24.284Z,49.70
2017-09-17T13:27:53.345Z,51.30
2017-09-17T13:30:22.404Z,54.00
2017-09-17T13:32:50.705Z,54.40
2017-09-17T13:35:19.010Z,56.30
2017-09-17T13:37:47.292Z,56.30
2017-09-17T13:40:15.588Z,55.30
2017-09-17T13:42:43.892Z,54.80
2017-09-17T13:45:12.947Z,54.10
2017-09-17T13:47:41.223Z,54.00
2017-09-17T13:50:09.521Z,54.10
2017-09-17T13:52:37.828Z,53.90
2017-09-17T13:55:06.883Z,53.90
2017-09-17T13:57:35.168Z,53.90
2017-09-17T14:00:04.276Z,53.80
2017-09-17T14:02:48.415Z,53.40
2017-09-17T14:05:16.700Z,52.70
2017-09-17T14:10:51.379Z,52.10
2017-09-17T14:13:19.678Z,51.80
2017-09-17T14:15:47.964Z,50.60
2017-09-17T14:18:16.255Z,50.40
2017-09-17T14:20:44.567Z,50.70
2017-09-17T14:23:12.863Z,50.50
2017-09-17T14:25:41.907Z,50.20
2017-09-17T14:28:10.203Z,50.20
2017-09-17T14:30:38.502Z,50.10
2017-09-17T14:33:06.793Z,49.80
2017-09-17T14:35:35.083Z,49.70
2017-09-17T14:38:04.147Z,49.70
2017-09-17T14:40:32.427Z,49.00
2017-09-17T14:43:00.715Z,48.80
2017-09-17T14:45:29.038Z,48.40
2017-09-17T14:47:58.079Z,48.60
2017-09-17T14:50:26.378Z,48.50
2017-09-17T14:52:54.725Z,48.50
2017-09-17T14:55:23.027Z,48.40
2017-09-17T14:57:51.376Z,48.50
2017-09-17T15:00:19.662Z,48.30
2017-09-17T15:02:47.955Z,48.30
2017-09-17T15:05:16.249Z,48.20
2017-09-17T15:07:44.532Z,48.00
2017-09-17T15:10:12.818Z,47.80
2017-09-17T15:12:41.098Z,47.90
2017-09-17T15:15:09.384Z,48.30
2017-09-17T15:17:37.681Z,48.70
2017-09-17T15:20:05.971Z,48.60
2017-09-17T15:22:34.282Z,48.30
2017-09-17T15:25:02.586Z,48.40
2017-09-17T15:27:30.874Z,48.70
2017-09-17T15:29:59.163Z,48.50
2017-09-17T15:32:27.443Z,47.90
2017-09-17T15:34:55.727Z,48.00
2017-09-17T15:37:24.014Z,48.00
2017-09-17T15:39:52.327Z,48.00
2017-09-17T15:42:21.396Z,48.80
2017-09-17T15:44:49.696Z,48.50
2017-09-17T15:47:17.983Z,48.70
2017-09-17T15:49:46.281Z,48.90
2017-09-17T15:52:15.323Z,48.40
2017-09-17T15:54:43.602Z,48.30
2017-09-17T15:57:11.893Z,48.30
2017-09-17T15:59:40.190Z,48.60
2017-09-17T16:02:08.482Z,48.50
2017-09-17T16:04:36.765Z,47.90
2017-09-17T16:07:05.054Z,48.30
2017-09-17T16:09:34.115Z,48.60
2017-09-17T16:12:02.412Z,48.50
2017-09-17T16:14:30.702Z,48.60
2017-09-17T16:16:58.996Z,48.90
2017-09-17T16:19:28.046Z,49.20
2017-09-17T16:21:56.347Z,49.10
2017-09-17T16:24:24.639Z,49.40
2017-09-17T16:26:52.921Z,49.50
2017-09-17T16:29:21.216Z,49.60
2017-09-17T16:31:49.512Z,50.00
2017-09-17T16:34:18.698Z,50.60
2017-09-17T16:36:46.990Z,50.60
2017-09-17T16:39:16.061Z,50.30
2017-09-17T16:41:44.362Z,50.30
2017-09-17T16:44:13.419Z,50.70
2017-09-17T16:46:41.708Z,50.70
2017-09-17T16:49:09.997Z,51.30
2017-09-17T16:51:38.310Z,51.50
2017-09-17T16:54:07.371Z,51.90
2017-09-17T16:56:35.656Z,51.90
2017-09-17T16:59:03.987Z,52.20
2017-09-17T17:01:33.040Z,52.90
2017-09-17T17:04:01.329Z,52.90
2017-09-17T17:06:29.623Z,53.30
2017-09-17T17:08:57.910Z,54.40
2017-09-17T17:11:26.967Z,54.80
2017-09-17T17:13:55.254Z,54.80
2017-09-17T17:16:24.311Z,54.80
2017-09-17T17:18:52.599Z,55.70
2017-09-17T17:21:20.888Z,55.40
2017-09-17T17:23:49.184Z,55.60
2017-09-17T17:26:17.467Z,55.80
2017-09-17T17:28:45.759Z,55.90
2017-09-17T17:31:14.058Z,56.10
2017-09-17T17:33:42.344Z,56.10
2017-09-17T17:36:10.634Z,56.60
2017-09-17T17:38:39.698Z,57.40
2017-09-17T17:41:07.981Z,57.20
2017-09-17T17:43:36.255Z,57.20
2017-09-17T17:46:04.560Z,57.50
2017-09-17T17:48:32.867Z,58.00
2017-09-17T17:51:01.929Z,58.30
2017-09-17T17:53:30.223Z,58.30
2017-09-17T17:55:58.498Z,58.30
2017-09-17T17:58:26.787Z,58.60
2017-09-17T18:00:55.061Z,58.70
2017-09-17T18:03:23.357Z,58.80
2017-09-17T18:05:52.434Z,58.40
2017-09-17T18:08:20.741Z,58.30
2017-09-17T18:10:49.796Z,58.70
2017-09-17T18:13:18.084Z,58.70
2017-09-17T18:15:46.377Z,59.30
2017-09-17T18:18:14.657Z,60.50
2017-09-17T18:20:42.936Z,61.70
2017-09-17T18:23:11.215Z,62.80
2017-09-17T18:25:39.506Z,63.50
2017-09-17T18:28:07.808Z,64.10
2017-09-17T18:30:36.870Z,65.00
2017-09-17T18:33:05.169Z,65.00
2017-09-17T18:35:33.447Z,65.30
2017-09-17T18:38:01.755Z,65.80
2017-09-17T18:40:30.795Z,66.30
2017-09-17T18:42:59.085Z,66.30
2017-09-17T18:45:27.371Z,66.60
2017-09-17T18:47:55.658Z,66.90
2017-09-17T18:50:29.405Z,67.00
2017-09-17T18:52:58.447Z,67.60
2017-09-17T18:55:26.742Z,67.60
2017-09-17T18:57:55.024Z,67.90
2017-09-17T19:00:23.316Z,68.20
2017-09-17T19:02:51.618Z,68.60
2017-09-17T19:05:19.908Z,68.90
2017-09-17T19:07:48.971Z,68.80
2017-09-17T19:10:17.277Z,68.80
2017-09-17T19:12:46.358Z,69.30
2017-09-17T19:15:14.652Z,69.00
2017-09-17T19:17:43.712Z,70.00
2017-09-17T19:20:11.999Z,69.10
2017-09-17T19:22:40.324Z,70.00
2017-09-17T19:25:09.392Z,69.40
2017-09-17T19:27:37.728Z,69.40
2017-09-17T19:30:06.036Z,69.40
2017-09-17T19:32:34.327Z,69.40
2017-09-17T19:35:02.662Z,69.50
2017-09-17T19:37:31.750Z,69.90
2017-09-17T19:40:00.834Z,69.90
2017-09-17T19:42:29.212Z,69.90
2017-09-17T19:44:57.514Z,69.90
2017-09-17T19:47:26.607Z,69.70
2017-09-17T19:49:54.896Z,69.70
2017-09-17T19:52:23.945Z,70.00
2017-09-17T19:54:52.263Z,70.00
2017-09-17T19:57:20.566Z,70.20
2017-09-17T19:59:49.650Z,70.20
2017-09-17T20:02:18.730Z,70.60
2017-09-17T20:04:47.028Z,70.10
2017-09-17T20:07:16.096Z,70.40
2017-09-17T20:09:44.394Z,69.80
2017-09-17T20:12:12.684Z,69.70
2017-09-17T20:14:40.985Z,69.70
2017-09-17T20:17:10.072Z,69.90
2017-09-17T20:19:39.132Z,70.10
2017-09-17T20:22:08.206Z,70.80
2017-09-17T20:24:36.501Z,70.20
2017-09-17T20:27:04.789Z,70.30
2017-09-17T20:29:33.079Z,70.40
2017-09-17T20:32:01.377Z,70.60
2017-09-17T20:34:29.667Z,70.60
2017-09-17T20:36:57.962Z,70.80
2017-09-17T20:39:27.022Z,71.10
2017-09-17T20:41:55.331Z,71.10
2017-09-17T20:44:23.629Z,71.20
2017-09-17T20:46:52.699Z,71.40
2017-09-17T20:49:20.984Z,71.40
2017-09-17T20:51:49.293Z,71.50
2017-09-17T20:54:18.368Z,71.70
2017-09-17T20:56:46.670Z,71.70
2017-09-17T20:59:15.742Z,71.80
2017-09-17T21:01:44.032Z,71.80
2017-09-17T21:04:12.331Z,71.80
2017-09-17T21:06:41.396Z,71.60
2017-09-17T21:09:09.708Z,71.60
2017-09-17T21:11:38.763Z,71.70
2017-09-17T21:14:07.061Z,71.70
2017-09-17T21:16:35.376Z,71.70
2017-09-17T21:19:04.451Z,71.90
2017-09-17T21:21:32.731Z,71.90
2017-09-17T21:24:01.027Z,71.80
2017-09-17T21:26:30.089Z,71.90
2017-09-17T21:28:58.387Z,71.90
2017-09-17T21:31:26.695Z,72.10
2017-09-17T21:33:55.747Z,74.40
2017-09-17T21:36:24.026Z,74.50
2017-09-17T21:38:52.326Z,76.50
2017-09-17T21:41:20.614Z,77.90
2017-09-17T21:43:48.921Z,79.10
2017-09-17T21:46:17.972Z,80.90
2017-09-17T21:48:46.266Z,81.00
2017-09-17T21:51:14.566Z,80.90
2017-09-17T21:53:43.624Z,82.50
2017-09-17T21:56:11.919Z,82.60
2017-09-17T21:58:40.237Z,83.40
2017-09-17T22:01:09.361Z,84.50
2017-09-17T22:03:37.651Z,84.40
2017-09-17T22:06:05.945Z,84.80
2017-09-17T22:08:34.235Z,84.60
2017-09-17T22:11:02.536Z,85.00
2017-09-17T22:13:32.334Z,86.10
2017-09-17T22:16:00.634Z,86.00
2017-09-17T22:18:28.929Z,86.30
2017-09-17T22:20:57.227Z,86.60
2017-09-17T22:23:26.281Z,87.20
2017-09-17T22:25:54.571Z,87.20
2017-09-17T22:28:22.865Z,87.60
2017-09-17T22:30:51.200Z,87.90
2017-09-17T22:33:19.498Z,88.20
2017-09-17T22:35:47.793Z,88.40
2017-09-17T22:38:16.121Z,88.60
2017-09-17T22:40:44.421Z,88.60
2017-09-17T22:43:12.705Z,88.40
2017-09-17T22:45:41.014Z,88.40
2017-09-17T22:48:09.324Z,88.50
2017-09-17T22:50:38.387Z,89.30
2017-09-17T22:53:06.703Z,89.30
2017-09-17T22:55:35.012Z,89.30
2017-09-17T22:58:03.322Z,89.80
2017-09-17T23:00:31.633Z,90.00
2017-09-17T23:02:59.957Z,90.20
2017-09-17T23:05:28.239Z,90.20
2017-09-17T23:07:56.532Z,90.60
2017-09-17T23:10:24.818Z,90.30
2017-09-17T23:12:53.149Z,90.40
2017-09-17T23:15:21.443Z,90.40
2017-09-17T23:17:50.496Z,90.60
2017-09-17T23:20:18.817Z,90.50
2017-09-17T23:22:47.108Z,90.60
2017-09-17T23:25:16.184Z,90.90
2017-09-17T23:27:44.495Z,90.80
2017-09-17T23:30:13.554Z,90.90
2017-09-17T23:32:41.847Z,90.90
2017-09-17T23:35:10.145Z,90.80
2017-09-17T23:37:39.200Z,90.40
2017-09-17T23:40:07.489Z,90.30
2017-09-17T23:42:35.799Z,90.30
2017-09-17T23:45:04.852Z,90.40
2017-09-17T23:47:33.166Z,90.40
2017-09-17T23:50:01.472Z,90.30
2017-09-17T23:52:30.528Z,90.50
2017-09-17T23:54:58.847Z,90.50
2017-09-17T23:57:27.909Z,90.50
2017-09-17T23:59:56.195Z,90.50
